sensor_id;sensor_type;location;lat;lon;timestamp;P1;durP1;ratioP1;P2;durP2;ratioP2
32501;SDS011;18952;52.516;13.460;2022-11-20T00:01:54;42.30;;;34.00;;
32501;SDS011;18952;52.516;13.460;2022-11-20T00:04:21;37.97;;;30.92;;
32501;SDS011;18952;52.516;13.460;2022-11-20T00:06:48;41.60;;;31.88;;
32501;SDS011;18952;52.516;13.460;2022-11-20T00:09:14;43.65;;;32.58;;
32501;SDS011;18952;52.516;13.460;2022-11-20T00:11:41;45.63;;;32.25;;
32501;SDS011;18952;52.516;13.460;2022-11-20T00:14:08;40.33;;;31.25;;
32501;SDS011;18952;52.516;13.460;2022-11-20T00:16:36;37.15;;;28.60;;
32501;SDS011;18952;52.516;13.460;2022-11-20T00:19:02;33.88;;;27.98;;
32501;SDS011;18952;52.516;13.460;2022-11-20T00:21:29;39.20;;;29.70;;
32501;SDS011;18952;52.516;13.460;2022-11-20T00:23:56;35.88;;;28.35;;
32501;SDS011;18952;52.516;13.460;2022-11-20T00:26:24;40.72;;;32.40;;
32501;SDS011;18952;52.516;13.460;2022-11-20T00:28:53;39.08;;;29.63;;
32501;SDS011;18952;52.516;13.460;2022-11-20T00:31:22;46.55;;;30.02;;
32501;SDS011;18952;52.516;13.460;2022-11-20T00:33:49;41.15;;;29.42;;
32501;SDS011;18952;52.516;13.460;2022-11-20T00:36:19;36.70;;;29.42;;
32501;SDS011;18952;52.516;13.460;2022-11-20T00:38:55;39.75;;;28.98;;
32501;SDS011;18952;52.516;13.460;2022-11-20T00:41:23;37.00;;;27.88;;
32501;SDS011;18952;52.516;13.460;2022-11-20T00:43:52;39.40;;;28.02;;
32501;SDS011;18952;52.516;13.460;2022-11-20T00:46:21;39.47;;;30.20;;
32501;SDS011;18952;52.516;13.460;2022-11-20T00:48:49;39.58;;;29.35;;
32501;SDS011;18952;52.516;13.460;2022-11-20T00:51:17;35.85;;;27.25;;
32501;SDS011;18952;52.516;13.460;2022-11-20T00:53:46;37.35;;;27.45;;
32501;SDS011;18952;52.516;13.460;2022-11-20T00:56:14;37.08;;;28.52;;
32501;SDS011;18952;52.516;13.460;2022-11-20T00:58:43;35.58;;;27.20;;
32501;SDS011;18952;52.516;13.460;2022-11-20T01:01:12;36.22;;;25.88;;
32501;SDS011;18952;52.516;13.460;2022-11-20T01:03:43;34.47;;;26.20;;
32501;SDS011;18952;52.516;13.460;2022-11-20T01:06:15;33.92;;;26.40;;
32501;SDS011;18952;52.516;13.460;2022-11-20T01:08:50;33.70;;;25.75;;
32501;SDS011;18952;52.516;13.460;2022-11-20T01:11:29;35.08;;;27.42;;
32501;SDS011;18952;52.516;13.460;2022-11-20T01:14:02;33.42;;;26.45;;
32501;SDS011;18952;52.516;13.460;2022-11-20T01:16:31;40.45;;;28.40;;
32501;SDS011;18952;52.516;13.460;2022-11-20T01:19:03;33.53;;;25.92;;
32501;SDS011;18952;52.516;13.460;2022-11-20T01:21:32;34.17;;;26.17;;
32501;SDS011;18952;52.516;13.460;2022-11-20T01:24:01;34.88;;;26.58;;
32501;SDS011;18952;52.516;13.460;2022-11-20T01:26:29;31.45;;;25.40;;
32501;SDS011;18952;52.516;13.460;2022-11-20T01:28:58;36.63;;;25.98;;
32501;SDS011;18952;52.516;13.460;2022-11-20T01:31:29;31.55;;;25.33;;
32501;SDS011;18952;52.516;13.460;2022-11-20T01:33:59;31.80;;;25.30;;
32501;SDS011;18952;52.516;13.460;2022-11-20T01:36:29;34.80;;;26.20;;
32501;SDS011;18952;52.516;13.460;2022-11-20T01:38:59;35.10;;;26.27;;
32501;SDS011;18952;52.516;13.460;2022-11-20T01:41:29;37.53;;;25.55;;
32501;SDS011;18952;52.516;13.460;2022-11-20T01:43:58;36.05;;;26.75;;
32501;SDS011;18952;52.516;13.460;2022-11-20T01:46:26;38.47;;;26.63;;
32501;SDS011;18952;52.516;13.460;2022-11-20T01:51:39;35.63;;;25.45;;
32501;SDS011;18952;52.516;13.460;2022-11-20T01:54:13;40.22;;;27.90;;
32501;SDS011;18952;52.516;13.460;2022-11-20T01:56:45;35.55;;;25.90;;
32501;SDS011;18952;52.516;13.460;2022-11-20T01:59:16;38.80;;;26.95;;
32501;SDS011;18952;52.516;13.460;2022-11-20T02:01:46;35.58;;;25.30;;
32501;SDS011;18952;52.516;13.460;2022-11-20T02:04:13;38.67;;;28.08;;
32501;SDS011;18952;52.516;13.460;2022-11-20T02:06:45;40.80;;;28.85;;
32501;SDS011;18952;52.516;13.460;2022-11-20T02:09:16;39.03;;;28.45;;
32501;SDS011;18952;52.516;13.460;2022-11-20T02:11:43;34.08;;;26.75;;
32501;SDS011;18952;52.516;13.460;2022-11-20T02:14:10;34.47;;;28.00;;
32501;SDS011;18952;52.516;13.460;2022-11-20T02:16:37;36.22;;;26.88;;
32501;SDS011;18952;52.516;13.460;2022-11-20T02:19:14;31.73;;;26.20;;
32501;SDS011;18952;52.516;13.460;2022-11-20T02:21:47;34.63;;;26.92;;
32501;SDS011;18952;52.516;13.460;2022-11-20T02:24:37;35.08;;;26.83;;
32501;SDS011;18952;52.516;13.460;2022-11-20T02:27:13;36.50;;;28.02;;
32501;SDS011;18952;52.516;13.460;2022-11-20T02:32:19;35.28;;;27.58;;
32501;SDS011;18952;52.516;13.460;2022-11-20T02:34:47;36.78;;;28.73;;
32501;SDS011;18952;52.516;13.460;2022-11-20T02:37:13;31.65;;;25.27;;
32501;SDS011;18952;52.516;13.460;2022-11-20T02:39:41;32.92;;;25.92;;
32501;SDS011;18952;52.516;13.460;2022-11-20T02:42:10;34.58;;;26.65;;
32501;SDS011;18952;52.516;13.460;2022-11-20T02:44:36;31.95;;;26.73;;
32501;SDS011;18952;52.516;13.460;2022-11-20T02:47:03;30.65;;;25.70;;
32501;SDS011;18952;52.516;13.460;2022-11-20T02:49:30;35.30;;;27.38;;
32501;SDS011;18952;52.516;13.460;2022-11-20T02:51:57;32.42;;;25.83;;
32501;SDS011;18952;52.516;13.460;2022-11-20T02:54:23;32.78;;;26.23;;
32501;SDS011;18952;52.516;13.460;2022-11-20T02:56:50;37.03;;;27.67;;
32501;SDS011;18952;52.516;13.460;2022-11-20T02:59:17;33.15;;;26.10;;
32501;SDS011;18952;52.516;13.460;2022-11-20T03:01:44;35.63;;;27.20;;
32501;SDS011;18952;52.516;13.460;2022-11-20T03:04:11;33.40;;;26.02;;
32501;SDS011;18952;52.516;13.460;2022-11-20T03:06:38;37.80;;;27.08;;
32501;SDS011;18952;52.516;13.460;2022-11-20T03:09:04;31.98;;;26.83;;
32501;SDS011;18952;52.516;13.460;2022-11-20T03:11:32;38.97;;;26.20;;
32501;SDS011;18952;52.516;13.460;2022-11-20T03:14:01;33.50;;;25.83;;
32501;SDS011;18952;52.516;13.460;2022-11-20T03:16:30;36.58;;;27.55;;
32501;SDS011;18952;52.516;13.460;2022-11-20T03:18:57;40.28;;;27.50;;
32501;SDS011;18952;52.516;13.460;2022-11-20T03:21:24;38.00;;;27.17;;
32501;SDS011;18952;52.516;13.460;2022-11-20T03:23:52;38.78;;;28.38;;
32501;SDS011;18952;52.516;13.460;2022-11-20T03:26:21;35.00;;;27.27;;
32501;SDS011;18952;52.516;13.460;2022-11-20T03:28:53;39.88;;;28.98;;
32501;SDS011;18952;52.516;13.460;2022-11-20T03:31:26;37.40;;;28.42;;
32501;SDS011;18952;52.516;13.460;2022-11-20T03:34:00;35.63;;;26.53;;
32501;SDS011;18952;52.516;13.460;2022-11-20T03:36:27;36.92;;;28.80;;
32501;SDS011;18952;52.516;13.460;2022-11-20T03:38:57;37.30;;;27.70;;
32501;SDS011;18952;52.516;13.460;2022-11-20T03:41:28;34.70;;;27.50;;
32501;SDS011;18952;52.516;13.460;2022-11-20T03:43:57;36.50;;;27.23;;
32501;SDS011;18952;52.516;13.460;2022-11-20T03:46:26;37.83;;;28.80;;
32501;SDS011;18952;52.516;13.460;2022-11-20T03:48:53;37.30;;;29.60;;
32501;SDS011;18952;52.516;13.460;2022-11-20T03:51:25;36.65;;;29.13;;
32501;SDS011;18952;52.516;13.460;2022-11-20T03:53:53;39.17;;;29.13;;
32501;SDS011;18952;52.516;13.460;2022-11-20T03:56:23;38.38;;;27.98;;
32501;SDS011;18952;52.516;13.460;2022-11-20T03:58:50;43.22;;;29.52;;
32501;SDS011;18952;52.516;13.460;2022-11-20T04:01:18;37.88;;;29.35;;
32501;SDS011;18952;52.516;13.460;2022-11-20T04:03:47;33.78;;;28.05;;
32501;SDS011;18952;52.516;13.460;2022-11-20T04:06:15;35.70;;;27.95;;
32501;SDS011;18952;52.516;13.460;2022-11-20T04:08:46;36.38;;;27.20;;
32501;SDS011;18952;52.516;13.460;2022-11-20T04:11:23;34.55;;;27.23;;
32501;SDS011;18952;52.516;13.460;2022-11-20T04:13:54;34.70;;;28.08;;
32501;SDS011;18952;52.516;13.460;2022-11-20T04:16:25;36.03;;;27.77;;
32501;SDS011;18952;52.516;13.460;2022-11-20T04:18:56;35.75;;;27.38;;
32501;SDS011;18952;52.516;13.460;2022-11-20T04:21:25;36.78;;;28.27;;
32501;SDS011;18952;52.516;13.460;2022-11-20T04:23:53;37.10;;;28.80;;
32501;SDS011;18952;52.516;13.460;2022-11-20T04:26:21;35.67;;;28.13;;
32501;SDS011;18952;52.516;13.460;2022-11-20T04:28:49;36.38;;;29.80;;
32501;SDS011;18952;52.516;13.460;2022-11-20T04:31:17;46.10;;;29.75;;
32501;SDS011;18952;52.516;13.460;2022-11-20T04:33:46;36.85;;;27.83;;
32501;SDS011;18952;52.516;13.460;2022-11-20T04:36:14;32.22;;;26.80;;
32501;SDS011;18952;52.516;13.460;2022-11-20T04:38:43;39.97;;;30.00;;
32501;SDS011;18952;52.516;13.460;2022-11-20T04:41:20;35.17;;;26.42;;
32501;SDS011;18952;52.516;13.460;2022-11-20T04:43:48;35.72;;;27.13;;
32501;SDS011;18952;52.516;13.460;2022-11-20T04:46:17;34.83;;;28.20;;
32501;SDS011;18952;52.516;13.460;2022-11-20T04:48:45;35.50;;;28.27;;
32501;SDS011;18952;52.516;13.460;2022-11-20T04:51:13;34.70;;;27.90;;
32501;SDS011;18952;52.516;13.460;2022-11-20T04:53:39;34.85;;;28.23;;
32501;SDS011;18952;52.516;13.460;2022-11-20T04:56:07;36.42;;;28.05;;
32501;SDS011;18952;52.516;13.460;2022-11-20T04:58:35;37.78;;;27.60;;
32501;SDS011;18952;52.516;13.460;2022-11-20T05:01:06;35.80;;;28.45;;
32501;SDS011;18952;52.516;13.460;2022-11-20T05:03:36;33.80;;;27.88;;
32501;SDS011;18952;52.516;13.460;2022-11-20T05:06:08;38.25;;;28.15;;
32501;SDS011;18952;52.516;13.460;2022-11-20T05:08:35;37.83;;;28.70;;
32501;SDS011;18952;52.516;13.460;2022-11-20T05:13:36;37.17;;;28.23;;
32501;SDS011;18952;52.516;13.460;2022-11-20T05:16:06;39.78;;;29.08;;
32501;SDS011;18952;52.516;13.460;2022-11-20T05:18:34;42.78;;;29.75;;
32501;SDS011;18952;52.516;13.460;2022-11-20T05:21:02;36.72;;;27.88;;
32501;SDS011;18952;52.516;13.460;2022-11-20T05:23:29;40.85;;;29.52;;
32501;SDS011;18952;52.516;13.460;2022-11-20T05:25:57;37.03;;;28.67;;
32501;SDS011;18952;52.516;13.460;2022-11-20T05:28:25;37.97;;;28.73;;
32501;SDS011;18952;52.516;13.460;2022-11-20T05:30:52;39.78;;;28.05;;
32501;SDS011;18952;52.516;13.460;2022-11-20T05:33:19;39.20;;;28.60;;
32501;SDS011;18952;52.516;13.460;2022-11-20T05:35:46;38.05;;;28.42;;
32501;SDS011;18952;52.516;13.460;2022-11-20T05:38:13;37.78;;;27.83;;
32501;SDS011;18952;52.516;13.460;2022-11-20T05:40:40;35.17;;;29.15;;
32501;SDS011;18952;52.516;13.460;2022-11-20T05:43:07;37.15;;;27.92;;
32501;SDS011;18952;52.516;13.460;2022-11-20T05:45:33;36.88;;;29.70;;
32501;SDS011;18952;52.516;13.460;2022-11-20T05:48:00;35.45;;;28.60;;
32501;SDS011;18952;52.516;13.460;2022-11-20T05:50:29;39.72;;;28.98;;
32501;SDS011;18952;52.516;13.460;2022-11-20T05:52:59;34.65;;;27.83;;
32501;SDS011;18952;52.516;13.460;2022-11-20T05:55:26;38.83;;;28.60;;
32501;SDS011;18952;52.516;13.460;2022-11-20T05:57:53;41.63;;;28.35;;
32501;SDS011;18952;52.516;13.460;2022-11-20T06:00:21;37.70;;;28.80;;
32501;SDS011;18952;52.516;13.460;2022-11-20T06:02:48;38.13;;;28.73;;
32501;SDS011;18952;52.516;13.460;2022-11-20T06:05:15;38.08;;;27.10;;
32501;SDS011;18952;52.516;13.460;2022-11-20T06:07:42;37.58;;;29.77;;
32501;SDS011;18952;52.516;13.460;2022-11-20T06:10:09;39.95;;;30.48;;
32501;SDS011;18952;52.516;13.460;2022-11-20T06:12:36;37.08;;;27.67;;
32501;SDS011;18952;52.516;13.460;2022-11-20T06:15:04;36.58;;;29.48;;
32501;SDS011;18952;52.516;13.460;2022-11-20T06:17:31;37.58;;;29.02;;
32501;SDS011;18952;52.516;13.460;2022-11-20T06:19:58;35.33;;;28.52;;
32501;SDS011;18952;52.516;13.460;2022-11-20T06:22:24;39.92;;;29.88;;
32501;SDS011;18952;52.516;13.460;2022-11-20T06:24:51;42.22;;;31.33;;
32501;SDS011;18952;52.516;13.460;2022-11-20T06:27:18;38.17;;;28.83;;
32501;SDS011;18952;52.516;13.460;2022-11-20T06:29:44;39.40;;;29.75;;
32501;SDS011;18952;52.516;13.460;2022-11-20T06:32:11;34.95;;;29.17;;
32501;SDS011;18952;52.516;13.460;2022-11-20T06:34:38;36.55;;;28.63;;
32501;SDS011;18952;52.516;13.460;2022-11-20T06:37:05;36.22;;;29.27;;
32501;SDS011;18952;52.516;13.460;2022-11-20T06:39:31;36.55;;;28.77;;
32501;SDS011;18952;52.516;13.460;2022-11-20T06:41:58;36.78;;;28.75;;
32501;SDS011;18952;52.516;13.460;2022-11-20T06:44:25;41.05;;;29.63;;
32501;SDS011;18952;52.516;13.460;2022-11-20T06:46:52;38.00;;;29.48;;
32501;SDS011;18952;52.516;13.460;2022-11-20T06:49:18;38.38;;;28.92;;
32501;SDS011;18952;52.516;13.460;2022-11-20T06:51:45;39.22;;;29.77;;
32501;SDS011;18952;52.516;13.460;2022-11-20T06:54:12;35.67;;;27.38;;
32501;SDS011;18952;52.516;13.460;2022-11-20T06:56:39;36.60;;;29.23;;
32501;SDS011;18952;52.516;13.460;2022-11-20T06:59:06;39.67;;;29.02;;
32501;SDS011;18952;52.516;13.460;2022-11-20T07:01:33;39.97;;;29.00;;
32501;SDS011;18952;52.516;13.460;2022-11-20T07:04:00;37.65;;;28.60;;
32501;SDS011;18952;52.516;13.460;2022-11-20T07:06:27;34.97;;;27.83;;
32501;SDS011;18952;52.516;13.460;2022-11-20T07:08:53;38.00;;;28.73;;
32501;SDS011;18952;52.516;13.460;2022-11-20T07:11:20;34.08;;;29.02;;
32501;SDS011;18952;52.516;13.460;2022-11-20T07:13:47;35.35;;;28.00;;
32501;SDS011;18952;52.516;13.460;2022-11-20T07:16:13;37.67;;;28.42;;
32501;SDS011;18952;52.516;13.460;2022-11-20T07:18:40;34.78;;;28.73;;
32501;SDS011;18952;52.516;13.460;2022-11-20T07:21:15;38.10;;;29.15;;
32501;SDS011;18952;52.516;13.460;2022-11-20T07:23:41;36.50;;;27.08;;
32501;SDS011;18952;52.516;13.460;2022-11-20T07:26:09;35.13;;;27.33;;
32501;SDS011;18952;52.516;13.460;2022-11-20T07:28:37;35.75;;;27.00;;
32501;SDS011;18952;52.516;13.460;2022-11-20T07:31:04;36.28;;;27.50;;
32501;SDS011;18952;52.516;13.460;2022-11-20T07:33:31;37.58;;;29.17;;
32501;SDS011;18952;52.516;13.460;2022-11-20T07:35:58;38.67;;;28.65;;
32501;SDS011;18952;52.516;13.460;2022-11-20T07:38:26;37.10;;;28.23;;
32501;SDS011;18952;52.516;13.460;2022-11-20T07:40:53;33.08;;;27.13;;
32501;SDS011;18952;52.516;13.460;2022-11-20T07:43:23;37.47;;;28.38;;
32501;SDS011;18952;52.516;13.460;2022-11-20T07:45:50;39.83;;;29.90;;
32501;SDS011;18952;52.516;13.460;2022-11-20T07:48:17;34.83;;;28.45;;
32501;SDS011;18952;52.516;13.460;2022-11-20T07:50:43;39.67;;;28.80;;
32501;SDS011;18952;52.516;13.460;2022-11-20T07:53:10;40.80;;;27.67;;
32501;SDS011;18952;52.516;13.460;2022-11-20T07:55:37;38.10;;;27.75;;
32501;SDS011;18952;52.516;13.460;2022-11-20T07:58:04;37.35;;;28.50;;
32501;SDS011;18952;52.516;13.460;2022-11-20T08:00:30;37.55;;;27.08;;
32501;SDS011;18952;52.516;13.460;2022-11-20T08:02:57;35.65;;;28.15;;
32501;SDS011;18952;52.516;13.460;2022-11-20T08:05:24;39.63;;;29.33;;
32501;SDS011;18952;52.516;13.460;2022-11-20T08:07:51;35.60;;;27.85;;
32501;SDS011;18952;52.516;13.460;2022-11-20T08:10:17;36.20;;;29.50;;
32501;SDS011;18952;52.516;13.460;2022-11-20T08:12:45;40.75;;;29.60;;
32501;SDS011;18952;52.516;13.460;2022-11-20T08:15:16;36.60;;;28.75;;
32501;SDS011;18952;52.516;13.460;2022-11-20T08:17:42;40.10;;;28.88;;
32501;SDS011;18952;52.516;13.460;2022-11-20T08:20:29;41.80;;;29.02;;
32501;SDS011;18952;52.516;13.460;2022-11-20T08:23:00;41.17;;;30.48;;
32501;SDS011;18952;52.516;13.460;2022-11-20T08:25:29;40.13;;;28.50;;
32501;SDS011;18952;52.516;13.460;2022-11-20T08:27:59;37.70;;;28.63;;
32501;SDS011;18952;52.516;13.460;2022-11-20T08:30:41;36.40;;;28.42;;
32501;SDS011;18952;52.516;13.460;2022-11-20T08:33:08;34.53;;;28.58;;
32501;SDS011;18952;52.516;13.460;2022-11-20T08:35:35;41.88;;;30.45;;
32501;SDS011;18952;52.516;13.460;2022-11-20T08:38:03;38.65;;;29.13;;
32501;SDS011;18952;52.516;13.460;2022-11-20T08:40:32;39.40;;;30.27;;
32501;SDS011;18952;52.516;13.460;2022-11-20T08:42:59;42.55;;;31.38;;
32501;SDS011;18952;52.516;13.460;2022-11-20T08:45:26;38.22;;;30.35;;
32501;SDS011;18952;52.516;13.460;2022-11-20T08:47:59;40.30;;;30.33;;
32501;SDS011;18952;52.516;13.460;2022-11-20T08:50:27;40.70;;;30.75;;
32501;SDS011;18952;52.516;13.460;2022-11-20T08:52:53;38.53;;;29.58;;
32501;SDS011;18952;52.516;13.460;2022-11-20T08:55:20;40.10;;;30.08;;
32501;SDS011;18952;52.516;13.460;2022-11-20T08:57:47;39.30;;;29.83;;
32501;SDS011;18952;52.516;13.460;2022-11-20T09:00:16;37.45;;;28.50;;
32501;SDS011;18952;52.516;13.460;2022-11-20T09:02:43;40.53;;;29.08;;
32501;SDS011;18952;52.516;13.460;2022-11-20T09:05:10;36.17;;;28.40;;
32501;SDS011;18952;52.516;13.460;2022-11-20T09:07:37;40.88;;;30.52;;
32501;SDS011;18952;52.516;13.460;2022-11-20T09:10:04;38.67;;;29.38;;
32501;SDS011;18952;52.516;13.460;2022-11-20T09:12:52;40.50;;;29.85;;
32501;SDS011;18952;52.516;13.460;2022-11-20T09:15:19;36.58;;;28.92;;
32501;SDS011;18952;52.516;13.460;2022-11-20T09:17:52;35.65;;;28.17;;
32501;SDS011;18952;52.516;13.460;2022-11-20T09:20:26;37.85;;;29.15;;
32501;SDS011;18952;52.516;13.460;2022-11-20T09:22:54;36.85;;;29.08;;
32501;SDS011;18952;52.516;13.460;2022-11-20T09:25:21;38.35;;;29.42;;
32501;SDS011;18952;52.516;13.460;2022-11-20T09:27:54;35.58;;;28.33;;
32501;SDS011;18952;52.516;13.460;2022-11-20T09:30:21;39.25;;;29.23;;
32501;SDS011;18952;52.516;13.460;2022-11-20T09:32:48;37.90;;;28.30;;
32501;SDS011;18952;52.516;13.460;2022-11-20T09:35:14;38.42;;;27.55;;
32501;SDS011;18952;52.516;13.460;2022-11-20T09:37:42;35.15;;;27.17;;
32501;SDS011;18952;52.516;13.460;2022-11-20T09:43:17;41.67;;;28.55;;
32501;SDS011;18952;52.516;13.460;2022-11-20T09:49:05;33.83;;;26.15;;
32501;SDS011;18952;52.516;13.460;2022-11-20T09:54:18;33.60;;;26.77;;
32501;SDS011;18952;52.516;13.460;2022-11-20T09:56:52;34.65;;;28.27;;
32501;SDS011;18952;52.516;13.460;2022-11-20T10:01:49;31.02;;;26.05;;
32501;SDS011;18952;52.516;13.460;2022-11-20T10:04:17;33.28;;;26.92;;
32501;SDS011;18952;52.516;13.460;2022-11-20T10:07:06;32.83;;;25.73;;
32501;SDS011;18952;52.516;13.460;2022-11-20T10:09:58;34.90;;;27.90;;
32501;SDS011;18952;52.516;13.460;2022-11-20T10:12:34;34.42;;;26.70;;
32501;SDS011;18952;52.516;13.460;2022-11-20T10:18:29;31.95;;;24.98;;
32501;SDS011;18952;52.516;13.460;2022-11-20T10:21:38;33.42;;;25.88;;
32501;SDS011;18952;52.516;13.460;2022-11-20T10:31:41;34.15;;;24.70;;
32501;SDS011;18952;52.516;13.460;2022-11-20T10:37:00;34.25;;;26.42;;
32501;SDS011;18952;52.516;13.460;2022-11-20T10:39:39;32.38;;;27.63;;
32501;SDS011;18952;52.516;13.460;2022-11-20T10:42:20;37.65;;;27.90;;
32501;SDS011;18952;52.516;13.460;2022-11-20T10:44:58;32.60;;;27.17;;
32501;SDS011;18952;52.516;13.460;2022-11-20T10:47:39;34.30;;;26.67;;
32501;SDS011;18952;52.516;13.460;2022-11-20T10:50:08;34.80;;;27.35;;
32501;SDS011;18952;52.516;13.460;2022-11-20T10:52:45;34.42;;;27.77;;
32501;SDS011;18952;52.516;13.460;2022-11-20T10:55:30;36.58;;;27.35;;
32501;SDS011;18952;52.516;13.460;2022-11-20T11:00:50;37.10;;;28.27;;
32501;SDS011;18952;52.516;13.460;2022-11-20T11:03:22;35.67;;;27.85;;
32501;SDS011;18952;52.516;13.460;2022-11-20T11:08:32;34.78;;;26.45;;
32501;SDS011;18952;52.516;13.460;2022-11-20T11:14:05;34.00;;;26.63;;
32501;SDS011;18952;52.516;13.460;2022-11-20T11:16:33;34.40;;;26.25;;
32501;SDS011;18952;52.516;13.460;2022-11-20T11:19:07;35.03;;;26.17;;
32501;SDS011;18952;52.516;13.460;2022-11-20T11:21:46;40.70;;;28.10;;
32501;SDS011;18952;52.516;13.460;2022-11-20T11:27:12;30.98;;;25.83;;
32501;SDS011;18952;52.516;13.460;2022-11-20T11:29:43;32.13;;;25.25;;
32501;SDS011;18952;52.516;13.460;2022-11-20T11:32:14;31.10;;;24.35;;
32501;SDS011;18952;52.516;13.460;2022-11-20T11:34:43;32.65;;;24.92;;
32501;SDS011;18952;52.516;13.460;2022-11-20T11:37:13;33.95;;;24.05;;
32501;SDS011;18952;52.516;13.460;2022-11-20T11:39:43;35.50;;;25.17;;
32501;SDS011;18952;52.516;13.460;2022-11-20T11:42:20;27.13;;;22.88;;
32501;SDS011;18952;52.516;13.460;2022-11-20T11:44:47;28.67;;;22.98;;
32501;SDS011;18952;52.516;13.460;2022-11-20T11:50:00;32.60;;;23.38;;
32501;SDS011;18952;52.516;13.460;2022-11-20T11:55:07;31.63;;;23.50;;
32501;SDS011;18952;52.516;13.460;2022-11-20T12:00:18;33.08;;;24.63;;
32501;SDS011;18952;52.516;13.460;2022-11-20T12:05:29;31.08;;;25.83;;
32501;SDS011;18952;52.516;13.460;2022-11-20T12:08:17;35.45;;;25.42;;
32501;SDS011;18952;52.516;13.460;2022-11-20T12:11:16;37.90;;;27.50;;
32501;SDS011;18952;52.516;13.460;2022-11-20T12:14:11;31.95;;;25.58;;
32501;SDS011;18952;52.516;13.460;2022-11-20T12:17:11;38.05;;;28.48;;
32501;SDS011;18952;52.516;13.460;2022-11-20T12:19:40;34.72;;;26.20;;
32501;SDS011;18952;52.516;13.460;2022-11-20T12:30:20;36.20;;;27.42;;
32501;SDS011;18952;52.516;13.460;2022-11-20T12:43:48;34.38;;;26.13;;
32501;SDS011;18952;52.516;13.460;2022-11-20T12:46:46;36.00;;;24.98;;
32501;SDS011;18952;52.516;13.460;2022-11-20T12:50:11;38.83;;;26.77;;
32501;SDS011;18952;52.516;13.460;2022-11-20T13:00:17;40.15;;;25.95;;
32501;SDS011;18952;52.516;13.460;2022-11-20T13:08:48;28.03;;;19.77;;
32501;SDS011;18952;52.516;13.460;2022-11-20T13:11:20;22.45;;;17.02;;
32501;SDS011;18952;52.516;13.460;2022-11-20T13:14:11;27.45;;;18.05;;
32501;SDS011;18952;52.516;13.460;2022-11-20T13:16:49;21.90;;;15.65;;
32501;SDS011;18952;52.516;13.460;2022-11-20T13:19:31;19.15;;;15.13;;
32501;SDS011;18952;52.516;13.460;2022-11-20T13:21:59;19.75;;;14.90;;
32501;SDS011;18952;52.516;13.460;2022-11-20T13:24:27;19.60;;;15.40;;
32501;SDS011;18952;52.516;13.460;2022-11-20T13:29:44;20.13;;;15.98;;
32501;SDS011;18952;52.516;13.460;2022-11-20T13:32:21;18.27;;;14.82;;
32501;SDS011;18952;52.516;13.460;2022-11-20T13:35:05;18.48;;;15.05;;
32501;SDS011;18952;52.516;13.460;2022-11-20T13:37:41;20.58;;;15.75;;
32501;SDS011;18952;52.516;13.460;2022-11-20T13:42:54;24.75;;;16.55;;
32501;SDS011;18952;52.516;13.460;2022-11-20T13:45:30;21.00;;;15.55;;
32501;SDS011;18952;52.516;13.460;2022-11-20T13:48:15;20.17;;;15.55;;
32501;SDS011;18952;52.516;13.460;2022-11-20T13:50:52;19.52;;;14.70;;
32501;SDS011;18952;52.516;13.460;2022-11-20T13:53:44;21.58;;;16.83;;
32501;SDS011;18952;52.516;13.460;2022-11-20T14:01:58;19.20;;;14.80;;
32501;SDS011;18952;52.516;13.460;2022-11-20T14:04:36;19.58;;;15.25;;
32501;SDS011;18952;52.516;13.460;2022-11-20T14:07:08;16.75;;;13.43;;
32501;SDS011;18952;52.516;13.460;2022-11-20T14:09:35;19.70;;;14.85;;
32501;SDS011;18952;52.516;13.460;2022-11-20T14:12:03;18.08;;;13.75;;
32501;SDS011;18952;52.516;13.460;2022-11-20T14:14:47;19.90;;;15.50;;
32501;SDS011;18952;52.516;13.460;2022-11-20T14:17:22;19.98;;;14.15;;
32501;SDS011;18952;52.516;13.460;2022-11-20T14:19:50;19.48;;;13.95;;
32501;SDS011;18952;52.516;13.460;2022-11-20T14:22:25;17.83;;;14.13;;
32501;SDS011;18952;52.516;13.460;2022-11-20T14:27:49;17.40;;;14.13;;
32501;SDS011;18952;52.516;13.460;2022-11-20T14:30:19;18.80;;;14.35;;
32501;SDS011;18952;52.516;13.460;2022-11-20T14:32:48;17.38;;;13.90;;
32501;SDS011;18952;52.516;13.460;2022-11-20T14:35:27;20.27;;;14.70;;
32501;SDS011;18952;52.516;13.460;2022-11-20T14:38:00;25.15;;;15.25;;
32501;SDS011;18952;52.516;13.460;2022-11-20T14:40:29;18.33;;;14.70;;
32501;SDS011;18952;52.516;13.460;2022-11-20T14:43:00;20.58;;;16.42;;
32501;SDS011;18952;52.516;13.460;2022-11-20T14:45:45;21.45;;;16.45;;
32501;SDS011;18952;52.516;13.460;2022-11-20T14:48:24;20.98;;;17.25;;
32501;SDS011;18952;52.516;13.460;2022-11-20T14:51:04;23.77;;;17.00;;
32501;SDS011;18952;52.516;13.460;2022-11-20T14:53:33;23.67;;;16.70;;
32501;SDS011;18952;52.516;13.460;2022-11-20T14:56:04;22.63;;;16.40;;
32501;SDS011;18952;52.516;13.460;2022-11-20T14:58:40;22.13;;;17.38;;
32501;SDS011;18952;52.516;13.460;2022-11-20T15:01:25;20.17;;;16.63;;
32501;SDS011;18952;52.516;13.460;2022-11-20T15:04:06;21.95;;;17.38;;
32501;SDS011;18952;52.516;13.460;2022-11-20T15:06:35;20.25;;;16.48;;
32501;SDS011;18952;52.516;13.460;2022-11-20T15:09:12;23.15;;;16.08;;
32501;SDS011;18952;52.516;13.460;2022-11-20T15:11:40;23.60;;;17.42;;
32501;SDS011;18952;52.516;13.460;2022-11-20T15:14:21;19.88;;;15.95;;
32501;SDS011;18952;52.516;13.460;2022-11-20T15:16:52;20.88;;;15.73;;
32501;SDS011;18952;52.516;13.460;2022-11-20T15:19:22;19.17;;;15.38;;
32501;SDS011;18952;52.516;13.460;2022-11-20T15:21:51;22.83;;;16.75;;
32501;SDS011;18952;52.516;13.460;2022-11-20T15:24:20;20.77;;;16.23;;
32501;SDS011;18952;52.516;13.460;2022-11-20T15:26:50;19.83;;;15.50;;
32501;SDS011;18952;52.516;13.460;2022-11-20T15:29:20;22.15;;;16.17;;
32501;SDS011;18952;52.516;13.460;2022-11-20T15:31:52;20.52;;;15.98;;
32501;SDS011;18952;52.516;13.460;2022-11-20T15:34:19;22.63;;;16.88;;
32501;SDS011;18952;52.516;13.460;2022-11-20T15:36:47;19.50;;;16.02;;
32501;SDS011;18952;52.516;13.460;2022-11-20T15:39:17;23.52;;;16.23;;
32501;SDS011;18952;52.516;13.460;2022-11-20T15:41:44;20.83;;;16.60;;
32501;SDS011;18952;52.516;13.460;2022-11-20T15:44:13;21.45;;;16.35;;
32501;SDS011;18952;52.516;13.460;2022-11-20T15:46:42;18.77;;;15.70;;
32501;SDS011;18952;52.516;13.460;2022-11-20T15:49:14;20.90;;;15.55;;
32501;SDS011;18952;52.516;13.460;2022-11-20T15:51:47;22.17;;;16.20;;
32501;SDS011;18952;52.516;13.460;2022-11-20T15:54:16;20.40;;;16.88;;
32501;SDS011;18952;52.516;13.460;2022-11-20T15:56:46;21.13;;;16.98;;
32501;SDS011;18952;52.516;13.460;2022-11-20T15:59:16;20.73;;;16.42;;
32501;SDS011;18952;52.516;13.460;2022-11-20T16:01:45;26.63;;;18.88;;
32501;SDS011;18952;52.516;13.460;2022-11-20T16:04:21;26.02;;;18.98;;
32501;SDS011;18952;52.516;13.460;2022-11-20T16:07:02;23.48;;;18.30;;
32501;SDS011;18952;52.516;13.460;2022-11-20T16:09:29;27.48;;;18.92;;
32501;SDS011;18952;52.516;13.460;2022-11-20T16:12:00;22.33;;;18.20;;